createdAt,value
2022-07-26T00:01:31.741Z,99614.56
2022-07-26T00:04:02.239Z,99614.66
2022-07-26T00:06:31.068Z,99611.72
2022-07-26T00:08:59.630Z,99617.41
2022-07-26T00:11:29.457Z,99591.34
2022-07-26T00:13:58.156Z,99620.22
2022-07-26T00:16:27.221Z,99620.84
2022-07-26T00:18:56.660Z,99615.81
2022-07-26T00:21:26.187Z,99601.59
2022-07-26T00:23:58.407Z,99617.75
2022-07-26T00:26:27.219Z,99604.59
2022-07-26T00:28:55.834Z,99611.41
2022-07-26T00:31:24.726Z,99629.09
2022-07-26T00:33:53.571Z,99625.97
2022-07-26T00:36:22.250Z,99622.50
2022-07-26T00:38:52.938Z,99616.59
2022-07-26T00:41:21.571Z,99623.84
2022-07-26T00:43:58.398Z,99576.72
2022-07-26T00:46:27.626Z,99630.97
2022-07-26T00:48:56.671Z,99622.41
2022-07-26T00:51:25.586Z,99632.59
2022-07-26T00:53:54.362Z,99620.84
2022-07-26T00:56:23.071Z,99617.81
2022-07-26T00:58:51.774Z,99626.28
2022-07-26T01:01:20.422Z,99618.91
2022-07-26T01:03:52.670Z,99615.25
2022-07-26T01:06:26.961Z,99622.22
2022-07-26T01:08:56.871Z,99616.78
2022-07-26T01:11:25.503Z,99614.19
2022-07-26T01:13:54.242Z,99634.38
2022-07-26T01:16:23.056Z,99620.19
2022-07-26T01:18:52.386Z,99610.41
2022-07-26T01:21:22.894Z,99612.06
2022-07-26T01:23:51.612Z,99621.09
2022-07-26T01:26:20.356Z,99612.47
2022-07-26T01:28:50.217Z,99611.81
2022-07-26T01:31:19.347Z,99628.16
2022-07-26T01:33:48.333Z,99607.34
2022-07-26T01:36:17.571Z,99614.13
2022-07-26T01:38:46.524Z,99615.84
2022-07-26T01:41:15.262Z,99612.59
2022-07-26T01:43:44.109Z,99619.72
2022-07-26T01:46:14.352Z,99616.41
2022-07-26T01:48:43.403Z,99630.25
2022-07-26T01:51:12.101Z,99621.91
2022-07-26T01:53:40.616Z,99602.25
2022-07-26T01:56:09.487Z,99611.44
2022-07-26T01:58:38.275Z,99616.22
2022-07-26T02:01:10.117Z,99608.28
2022-07-26T02:03:38.907Z,99617.22
2022-07-26T02:06:07.655Z,99566.56
2022-07-26T02:08:36.403Z,99620.75
2022-07-26T02:11:06.435Z,99616.84
2022-07-26T02:13:43.884Z,99603.44
2022-07-26T02:16:15.754Z,99604.53
2022-07-26T02:18:44.611Z,99615.28
2022-07-26T02:21:13.255Z,99614.03
2022-07-26T02:23:42.230Z,99617.38
2022-07-26T02:26:11.290Z,99618.09
2022-07-26T02:28:40.028Z,99616.63
2022-07-26T02:31:09.171Z,99619.91
2022-07-26T02:33:40.530Z,99625.03
2022-07-26T02:36:10.732Z,99610.97
2022-07-26T02:38:39.396Z,99631.81
2022-07-26T02:41:09.026Z,99614.41
2022-07-26T02:43:37.787Z,99624.16
2022-07-26T02:46:06.646Z,99636.47
2022-07-26T02:48:35.479Z,99638.06
2022-07-26T02:51:04.591Z,99630.38
2022-07-26T02:53:33.741Z,99631.66
2022-07-26T02:56:02.323Z,99627.19
2022-07-26T02:58:31.105Z,99649.03
2022-07-26T03:00:59.881Z,99641.22
2022-07-26T03:03:28.537Z,99645.53
2022-07-26T03:05:59.538Z,99644.16
2022-07-26T03:08:28.046Z,99649.28
2022-07-26T03:10:56.417Z,99642.88
2022-07-26T03:13:25.020Z,99581.06
2022-07-26T03:15:53.651Z,99630.97
2022-07-26T03:18:22.278Z,99635.75
2022-07-26T03:20:51.443Z,99641.88
2022-07-26T03:23:20.153Z,99631.00
2022-07-26T03:25:51.232Z,99639.59
2022-07-26T03:28:19.979Z,99640.72
2022-07-26T03:30:48.478Z,99635.16
2022-07-26T03:33:17.420Z,99633.66
2022-07-26T03:35:45.935Z,99627.59
2022-07-26T03:38:15.976Z,99635.13
2022-07-26T03:40:44.611Z,99634.88
2022-07-26T03:43:13.230Z,99634.88
2022-07-26T03:45:42.978Z,99633.34
2022-07-26T03:48:11.787Z,99636.88
2022-07-26T03:50:41.855Z,99643.19
2022-07-26T03:53:10.609Z,99641.66
2022-07-26T03:55:57.387Z,99638.38
2022-07-26T03:58:28.706Z,99620.75
2022-07-26T04:00:57.471Z,99616.72
2022-07-26T04:03:26.223Z,99629.31
2022-07-26T04:05:56.073Z,99566.03
2022-07-26T04:08:24.956Z,99627.34
2022-07-26T04:10:53.795Z,99588.91
2022-07-26T04:13:24.826Z,99612.94
2022-07-26T04:15:53.356Z,99625.09
2022-07-26T04:18:22.093Z,99622.56
2022-07-26T04:20:53.388Z,99625.56
2022-07-26T04:23:22.186Z,99619.00
2022-07-26T04:25:50.912Z,99616.13
2022-07-26T04:28:19.885Z,99584.94
2022-07-26T04:30:48.730Z,99613.84
2022-07-26T04:33:17.461Z,99609.75
2022-07-26T04:35:45.956Z,99599.38
2022-07-26T04:38:14.670Z,99616.88
2022-07-26T04:40:43.486Z,99612.19
2022-07-26T04:43:15.601Z,99602.41
2022-07-26T04:45:46.424Z,99609.16
2022-07-26T04:48:15.654Z,99598.19
2022-07-26T04:50:44.737Z,99595.19
2022-07-26T04:53:13.570Z,99594.53
2022-07-26T04:55:43.136Z,99591.72
2022-07-26T04:58:12.335Z,99589.38
2022-07-26T05:01:08.432Z,99602.34
2022-07-26T05:03:29.707Z,99602.63
2022-07-26T05:05:58.487Z,99593.88
2022-07-26T05:08:27.183Z,99551.47
2022-07-26T05:10:56.147Z,99587.66
2022-07-26T05:13:25.265Z,99575.66
2022-07-26T05:16:01.667Z,99574.34
2022-07-26T05:18:31.838Z,99576.50
2022-07-26T05:21:12.854Z,99586.66
2022-07-26T05:23:41.446Z,99573.19
2022-07-26T05:26:11.717Z,99582.84
2022-07-26T05:28:41.508Z,99581.06
2022-07-26T05:31:10.333Z,99573.06
2022-07-26T05:33:39.700Z,99578.69
2022-07-26T05:36:08.683Z,99568.50
2022-07-26T05:38:39.807Z,99568.50
2022-07-26T05:41:08.461Z,99569.09
2022-07-26T05:43:41.112Z,99566.22
2022-07-26T05:46:12.215Z,99573.22
2022-07-26T05:48:41.322Z,99553.50
2022-07-26T05:51:13.296Z,99579.78
2022-07-26T05:53:42.449Z,99553.09
2022-07-26T05:56:12.385Z,99547.81
2022-07-26T05:58:40.995Z,99554.25
2022-07-26T06:01:09.745Z,99546.13
2022-07-26T06:03:38.386Z,99542.91
2022-07-26T06:06:07.545Z,99548.00
2022-07-26T06:08:37.558Z,99544.72
2022-07-26T06:11:06.719Z,99552.31
2022-07-26T06:13:35.322Z,99552.88
2022-07-26T06:16:04.100Z,99540.81
2022-07-26T06:18:32.862Z,99547.28
2022-07-26T06:21:02.439Z,99530.50
2022-07-26T06:23:34.573Z,99536.09
2022-07-26T06:26:05.546Z,99531.44
2022-07-26T06:28:34.626Z,99529.00
2022-07-26T06:31:08.290Z,99485.09
2022-07-26T06:33:37.580Z,99519.94
2022-07-26T06:36:08.850Z,99522.41
2022-07-26T06:38:37.766Z,99510.78
2022-07-26T06:41:06.557Z,99501.41
2022-07-26T06:43:35.480Z,99512.72
2022-07-26T06:46:04.153Z,99508.13
2022-07-26T06:48:36.851Z,99509.28
2022-07-26T06:51:10.705Z,99501.56
2022-07-26T06:53:39.618Z,99497.16
2022-07-26T06:56:08.554Z,99502.16
2022-07-26T06:58:37.424Z,99508.75
2022-07-26T07:01:06.145Z,99509.56
2022-07-26T07:03:35.109Z,99499.31
2022-07-26T07:06:04.024Z,99492.75
2022-07-26T07:08:32.903Z,99490.84
2022-07-26T07:11:06.560Z,99492.25
2022-07-26T07:13:35.692Z,99492.25
2022-07-26T07:16:04.970Z,99480.69
2022-07-26T07:18:33.654Z,99495.59
2022-07-26T07:21:02.460Z,99486.78
2022-07-26T07:23:31.458Z,99482.94
2022-07-26T07:26:00.265Z,99475.75
2022-07-26T07:28:29.616Z,99491.75
2022-07-26T07:30:58.481Z,99464.72
2022-07-26T07:33:27.549Z,99472.97
2022-07-26T07:36:05.840Z,99468.56
2022-07-26T07:38:34.603Z,99451.19
2022-07-26T07:41:06.250Z,99471.59
2022-07-26T07:43:36.073Z,99468.25
2022-07-26T07:46:05.541Z,99464.69
2022-07-26T07:48:34.027Z,99479.25
2022-07-26T07:51:02.787Z,99475.34
2022-07-26T07:53:31.505Z,99474.81
2022-07-26T07:56:00.194Z,99488.88
2022-07-26T07:58:29.087Z,99489.47
2022-07-26T08:00:57.876Z,99480.09
2022-07-26T08:03:38.666Z,99483.13
2022-07-26T08:06:11.047Z,99470.91
2022-07-26T08:08:40.142Z,99483.06
2022-07-26T08:11:09.195Z,99478.94
2022-07-26T08:13:38.064Z,99486.13
2022-07-26T08:16:09.592Z,99462.13
2022-07-26T08:18:49.083Z,99482.28
2022-07-26T08:21:24.689Z,99477.59
2022-07-26T08:23:58.104Z,99480.84
2022-07-26T08:26:27.017Z,99478.94
2022-07-26T08:28:59.857Z,99482.19
2022-07-26T08:31:29.856Z,99472.34
2022-07-26T08:33:58.670Z,99472.34
2022-07-26T08:36:32.151Z,99480.00
2022-07-26T08:39:02.181Z,99456.78
2022-07-26T08:41:31.764Z,99465.91
2022-07-26T08:44:08.305Z,99447.94
2022-07-26T08:46:39.512Z,99469.00
2022-07-26T08:49:10.916Z,99446.16
2022-07-26T08:51:43.894Z,99464.56
2022-07-26T08:54:15.113Z,99459.63
2022-07-26T08:56:53.950Z,99452.72
2022-07-26T08:59:23.428Z,99446.41
2022-07-26T09:02:03.412Z,99441.13
2022-07-26T09:04:44.891Z,99452.97
2022-07-26T09:07:19.303Z,99438.06
2022-07-26T09:09:59.686Z,99456.22
2022-07-26T09:12:29.940Z,99451.91
2022-07-26T09:15:00.200Z,99407.22
2022-07-26T09:17:43.726Z,99423.75
2022-07-26T09:20:14.241Z,99436.47
2022-07-26T09:23:00.954Z,99438.94
2022-07-26T09:25:32.448Z,99438.63
2022-07-26T09:28:01.807Z,99437.81
2022-07-26T09:30:32.352Z,99425.09
2022-07-26T09:33:08.533Z,99423.75
2022-07-26T09:35:51.112Z,99428.72
2022-07-26T09:38:21.016Z,99406.72
2022-07-26T09:40:51.330Z,99417.97
2022-07-26T09:43:23.879Z,99422.09
2022-07-26T09:46:07.870Z,99400.91
2022-07-26T09:49:08.126Z,99416.72
2022-07-26T09:51:44.200Z,99417.81
2022-07-26T09:54:17.973Z,99405.97
2022-07-26T09:56:50.929Z,99412.88
2022-07-26T09:59:21.964Z,99384.75
2022-07-26T10:01:52.424Z,99396.91
2022-07-26T10:04:22.306Z,99397.41
2022-07-26T10:06:51.301Z,99386.94
2022-07-26T10:09:21.126Z,99401.78
2022-07-26T10:12:06.593Z,99391.56
2022-07-26T10:14:43.769Z,99380.56
2022-07-26T10:17:38.242Z,99375.34
2022-07-26T10:20:31.083Z,99380.88
2022-07-26T10:23:00.882Z,99378.06
2022-07-26T10:25:29.251Z,99380.31
2022-07-26T10:27:59.227Z,99377.00
2022-07-26T10:30:35.148Z,99378.66
2022-07-26T10:33:09.678Z,99362.13
2022-07-26T10:35:46.711Z,99381.41
2022-07-26T10:38:24.031Z,99379.22
2022-07-26T10:41:09.777Z,99355.50
2022-07-26T10:43:41.046Z,99380.91
2022-07-26T10:46:23.858Z,99377.56
2022-07-26T10:49:09.701Z,99349.47
2022-07-26T10:51:42.034Z,99358.31
2022-07-26T10:54:13.680Z,99349.19
2022-07-26T10:56:43.526Z,99370.69
2022-07-26T10:59:12.044Z,99368.78
2022-07-26T11:01:44.237Z,99358.31
2022-07-26T11:04:23.289Z,99339.84
2022-07-26T11:06:52.294Z,99350.00
2022-07-26T11:09:21.297Z,99348.38
2022-07-26T11:11:52.971Z,99344.53
2022-07-26T11:14:21.574Z,99339.81
2022-07-26T11:16:51.676Z,99335.09
2022-07-26T11:19:28.518Z,99323.53
2022-07-26T11:22:01.655Z,99332.88
2022-07-26T11:24:30.105Z,99320.72
2022-07-26T11:27:05.194Z,99298.38
2022-07-26T11:29:39.088Z,99320.16
2022-07-26T11:32:22.262Z,99318.47
2022-07-26T11:35:06.032Z,99304.09
2022-07-26T11:37:34.748Z,99311.84
2022-07-26T11:40:03.481Z,99302.41
2022-07-26T11:42:32.038Z,99297.16
2022-07-26T11:45:00.686Z,99283.66
2022-07-26T11:47:29.288Z,99284.75
2022-07-26T11:50:21.541Z,99284.44
2022-07-26T11:52:52.742Z,99281.63
2022-07-26T11:55:31.907Z,99281.84
2022-07-26T11:58:07.468Z,99288.44
2022-07-26T12:00:36.130Z,99288.44
2022-07-26T12:03:04.788Z,99284.28
2022-07-26T12:05:34.609Z,99274.59
2022-07-26T12:08:05.666Z,99275.69
2022-07-26T12:10:34.487Z,99278.88
2022-07-26T12:13:11.760Z,99268.13
2022-07-26T12:15:53.983Z,99275.50
2022-07-26T12:18:30.687Z,99274.38
2022-07-26T12:21:06.221Z,99274.59
2022-07-26T12:23:51.647Z,99271.47
2022-07-26T12:26:31.266Z,99274.16
2022-07-26T12:29:20.148Z,99246.00
2022-07-26T12:32:03.461Z,99266.34
2022-07-26T12:34:32.676Z,99253.94
2022-07-26T12:37:12.149Z,99265.19
2022-07-26T12:39:42.801Z,99267.94
2022-07-26T12:42:33.458Z,99268.69
2022-07-26T12:45:05.034Z,99267.03
2022-07-26T12:47:33.920Z,99253.00
2022-07-26T12:50:04.116Z,99261.25
2022-07-26T12:52:34.767Z,99251.94
2022-07-26T12:55:06.040Z,99266.78
2022-07-26T12:57:35.120Z,99264.88
2022-07-26T13:00:07.947Z,99279.78
2022-07-26T13:02:37.990Z,99269.03
2022-07-26T13:05:07.338Z,99268.00
2022-07-26T13:07:36.399Z,99263.81
2022-07-26T13:10:31.831Z,99274.53
2022-07-26T13:12:55.847Z,99267.56
2022-07-26T13:15:24.667Z,99277.19
2022-07-26T13:18:08.290Z,99267.75
2022-07-26T13:20:40.406Z,99262.75
2022-07-26T13:23:13.811Z,99256.34
2022-07-26T13:25:44.687Z,99259.28
2022-07-26T13:28:13.419Z,99270.25
2022-07-26T13:30:44.668Z,99250.66
2022-07-26T13:33:13.486Z,99247.56
2022-07-26T13:35:43.080Z,99261.22
2022-07-26T13:38:11.875Z,99254.50
2022-07-26T13:40:40.847Z,99257.72
2022-07-26T13:43:09.930Z,99251.38
2022-07-26T13:45:38.436Z,99257.94
2022-07-26T13:48:07.457Z,99256.19
2022-07-26T13:50:36.136Z,99249.41
2022-07-26T13:53:04.886Z,99251.34
2022-07-26T13:55:33.589Z,99227.47
2022-07-26T13:58:07.615Z,99233.91
2022-07-26T14:00:38.658Z,99238.41
2022-07-26T14:03:07.665Z,99241.31
2022-07-26T14:05:36.390Z,99241.31
2022-07-26T14:08:05.142Z,99227.91
2022-07-26T14:10:38.895Z,99243.50
2022-07-26T14:13:08.215Z,99223.41
2022-07-26T14:15:37.218Z,99211.81
2022-07-26T14:18:06.077Z,99220.28
2022-07-26T14:20:34.826Z,99231.00
2022-07-26T14:23:04.224Z,99217.16
2022-07-26T14:25:33.400Z,99219.81
2022-07-26T14:28:05.159Z,99214.59
2022-07-26T14:30:33.759Z,99208.16
2022-07-26T14:33:02.659Z,99218.63
2022-07-26T14:35:31.567Z,99186.44
2022-07-26T14:38:00.127Z,99164.09
2022-07-26T14:40:30.007Z,99212.88
2022-07-26T14:42:58.756Z,99230.16
2022-07-26T14:45:32.837Z,99222.34
2022-07-26T14:48:01.507Z,99225.84
2022-07-26T14:50:47.040Z,99223.19
2022-07-26T14:53:20.068Z,99233.72
2022-07-26T14:55:48.568Z,99219.28
2022-07-26T14:58:17.107Z,99231.94
2022-07-26T15:00:45.826Z,99226.22
2022-07-26T15:03:15.640Z,99225.44
2022-07-26T15:05:44.789Z,99221.34
2022-07-26T15:08:13.437Z,99219.78
2022-07-26T15:10:42.239Z,99229.00
2022-07-26T15:13:11.028Z,99174.59
2022-07-26T15:15:39.539Z,99231.94
2022-07-26T15:18:08.421Z,99225.09
2022-07-26T15:20:40.819Z,99213.97
2022-07-26T15:23:11.792Z,99232.19
2022-07-26T15:25:40.636Z,99225.44
2022-07-26T15:28:09.184Z,99235.72
2022-07-26T15:30:38.367Z,99237.19
2022-07-26T15:33:07.967Z,99233.06
2022-07-26T15:35:41.415Z,99237.91
2022-07-26T15:38:10.436Z,99238.97
2022-07-26T15:40:42.250Z,99230.56
2022-07-26T15:43:10.974Z,99237.03
2022-07-26T15:45:42.139Z,99234.13
2022-07-26T15:48:17.006Z,99232.47
2022-07-26T15:50:50.768Z,99218.31
2022-07-26T15:55:46.323Z,99231.13
2022-07-26T15:58:15.087Z,99238.09
2022-07-26T16:00:44.011Z,99232.03
2022-07-26T16:03:12.971Z,99240.34
2022-07-26T16:05:42.675Z,99220.56
2022-07-26T16:08:12.320Z,99226.38
2022-07-26T16:10:41.430Z,99228.28
2022-07-26T16:13:10.252Z,99239.38
2022-07-26T16:15:39.701Z,99235.47
2022-07-26T16:18:08.440Z,99230.72
2022-07-26T16:20:37.448Z,99230.09
2022-07-26T16:23:06.277Z,99223.66
2022-07-26T16:25:34.890Z,99217.41
2022-07-26T16:28:03.420Z,99221.97
2022-07-26T16:30:32.465Z,99221.81
2022-07-26T16:33:00.995Z,99238.69
2022-07-26T16:35:29.738Z,99222.03
2022-07-26T16:37:58.228Z,99230.56
2022-07-26T16:40:27.067Z,99231.00
2022-07-26T16:42:55.789Z,99225.38
2022-07-26T16:45:24.487Z,99212.22
2022-07-26T16:48:01.776Z,99215.16
2022-07-26T16:50:38.255Z,99224.13
2022-07-26T16:53:13.749Z,99206.81
2022-07-26T16:55:49.954Z,99157.41
2022-07-26T16:58:32.359Z,99206.63
2022-07-26T17:01:15.131Z,99209.97
2022-07-26T17:03:54.621Z,99192.44
2022-07-26T17:06:30.034Z,99194.53
2022-07-26T17:09:06.009Z,99201.63
2022-07-26T17:11:45.429Z,99152.03
2022-07-26T17:14:22.753Z,99213.09
2022-07-26T17:17:03.358Z,99204.97
2022-07-26T17:19:34.766Z,99191.41
2022-07-26T17:22:19.945Z,99186.19
2022-07-26T17:25:00.140Z,99197.66
2022-07-26T17:27:35.607Z,99185.38
2022-07-26T17:30:17.402Z,99188.91
2022-07-26T17:32:59.314Z,99169.53
2022-07-26T17:35:41.067Z,99189.34
2022-07-26T17:38:18.530Z,99128.25
2022-07-26T17:40:51.167Z,99183.09
2022-07-26T17:43:20.099Z,99187.06
2022-07-26T17:45:49.076Z,99183.09
2022-07-26T17:48:17.622Z,99178.28
2022-07-26T17:50:46.609Z,99184.94
2022-07-26T17:53:15.255Z,99189.53
2022-07-26T17:55:48.048Z,99197.03
2022-07-26T17:58:16.792Z,99195.38
2022-07-26T18:00:45.640Z,99197.84
2022-07-26T18:03:14.915Z,99192.22
2022-07-26T18:05:43.387Z,99192.44
2022-07-26T18:08:12.066Z,99184.06
2022-07-26T18:10:40.936Z,99185.75
2022-07-26T18:13:12.882Z,99180.72
2022-07-26T18:15:41.613Z,99188.84
2022-07-26T18:18:10.239Z,99164.88
2022-07-26T18:20:39.068Z,99179.88
2022-07-26T18:23:22.681Z,99188.41
2022-07-26T18:25:54.381Z,99186.56
2022-07-26T18:28:23.490Z,99172.78
2022-07-26T18:30:52.353Z,99175.69
2022-07-26T18:33:21.126Z,99167.56
2022-07-26T18:35:49.849Z,99170.28
2022-07-26T18:38:18.436Z,99178.19
2022-07-26T18:40:47.189Z,99177.78
2022-07-26T18:43:15.879Z,99145.00
2022-07-26T18:45:44.587Z,99173.97
2022-07-26T18:48:13.399Z,99166.88
2022-07-26T18:50:44.475Z,99175.22
2022-07-26T18:53:13.188Z,99151.44
2022-07-26T18:55:41.726Z,99156.84
2022-07-26T18:58:10.364Z,99150.16
2022-07-26T19:00:39.066Z,99137.66
2022-07-26T19:03:07.595Z,99140.56
2022-07-26T19:05:36.775Z,99144.31
2022-07-26T19:08:06.245Z,99138.03
2022-07-26T19:10:35.283Z,99145.50
2022-07-26T19:13:04.088Z,99142.56
2022-07-26T19:15:32.710Z,99147.13
2022-07-26T19:18:11.055Z,99157.31
2022-07-26T19:20:39.559Z,99163.53
2022-07-26T19:23:11.095Z,99174.53
2022-07-26T19:25:41.645Z,99144.22
2022-07-26T19:28:10.547Z,99178.28
2022-07-26T19:30:39.767Z,99186.09
2022-07-26T19:33:08.408Z,99184.81
2022-07-26T19:35:37.239Z,99182.75
2022-07-26T19:38:05.748Z,99174.19
2022-07-26T19:40:34.588Z,99185.22
2022-07-26T19:43:03.088Z,99166.47
2022-07-26T19:45:31.835Z,99179.81
2022-07-26T19:48:00.451Z,99161.84
2022-07-26T19:50:29.368Z,99165.16
2022-07-26T19:52:58.468Z,99168.03
2022-07-26T19:55:27.037Z,99162.63
2022-07-26T19:57:55.756Z,99161.41
2022-07-26T20:00:24.346Z,99160.31
2022-07-26T20:02:53.188Z,99162.22
2022-07-26T20:05:22.087Z,99141.16
2022-07-26T20:07:52.082Z,99157.38
2022-07-26T20:10:20.646Z,99130.00
2022-07-26T20:12:49.353Z,99132.06
2022-07-26T20:15:18.067Z,99134.91
2022-07-26T20:17:46.643Z,99141.97
2022-07-26T20:20:15.526Z,99134.38
2022-07-26T20:22:44.309Z,99141.84
2022-07-26T20:25:15.805Z,99129.53
2022-07-26T20:27:51.955Z,99143.91
2022-07-26T20:30:21.281Z,99134.72
2022-07-26T20:32:50.143Z,99132.19
2022-07-26T20:35:18.870Z,99115.09
2022-07-26T20:37:47.636Z,99115.09
2022-07-26T20:40:17.906Z,99127.59
2022-07-26T20:42:50.123Z,99112.19
2022-07-26T20:45:19.492Z,99099.03
2022-07-26T20:47:48.212Z,99088.88
2022-07-26T20:50:16.988Z,99111.63
2022-07-26T20:52:45.918Z,99102.69
2022-07-26T20:55:15.673Z,99087.06
2022-07-26T20:57:44.426Z,99099.13
2022-07-26T21:00:14.287Z,99097.66
2022-07-26T21:02:43.122Z,99090.09
2022-07-26T21:05:12.649Z,99082.19
2022-07-26T21:07:58.576Z,99026.16
2022-07-26T21:10:31.678Z,99066.63
2022-07-26T21:13:01.726Z,99065.44
2022-07-26T21:15:31.608Z,99091.91
2022-07-26T21:18:01.694Z,99080.19
2022-07-26T21:20:30.616Z,99058.91
2022-07-26T21:23:12.771Z,99074.34
2022-07-26T21:25:41.961Z,99074.63
2022-07-26T21:28:10.657Z,99073.97
2022-07-26T21:30:39.668Z,99091.47
2022-07-26T21:33:08.858Z,99067.47
2022-07-26T21:35:37.877Z,99036.53
2022-07-26T21:38:06.973Z,99080.41
2022-07-26T21:40:36.304Z,99086.06
2022-07-26T21:43:05.443Z,99063.13
2022-07-26T21:45:37.351Z,99081.03
2022-07-26T21:48:07.377Z,99064.72
2022-07-26T21:50:36.459Z,99101.28
2022-07-26T21:53:05.336Z,99094.94
2022-07-26T21:55:34.085Z,99076.78
2022-07-26T21:58:02.759Z,99072.88
2022-07-26T22:00:31.289Z,99089.53
2022-07-26T22:02:59.728Z,99072.84
2022-07-26T22:05:40.312Z,99065.59
2022-07-26T22:08:13.953Z,99060.16
2022-07-26T22:10:45.061Z,99057.84
2022-07-26T22:13:14.925Z,99058.59
2022-07-26T22:15:44.872Z,99076.94
2022-07-26T22:18:14.535Z,99068.94
2022-07-26T22:20:44.945Z,99071.91
2022-07-26T22:23:14.129Z,99071.16
2022-07-26T22:25:43.212Z,99067.16
2022-07-26T22:28:17.771Z,99080.41
2022-07-26T22:30:48.163Z,99055.13
2022-07-26T22:33:17.250Z,99014.59
2022-07-26T22:35:45.966Z,99049.63
2022-07-26T22:38:15.542Z,99060.44
2022-07-26T22:40:44.835Z,99027.66
2022-07-26T22:43:13.985Z,99060.44
2022-07-26T22:45:42.996Z,99060.44
2022-07-26T22:48:12.454Z,99065.81
2022-07-26T22:50:41.468Z,99060.44
2022-07-26T22:53:10.860Z,99065.66
2022-07-26T22:55:39.775Z,99060.34
2022-07-26T22:58:09.045Z,99051.72
2022-07-26T23:00:38.931Z,99041.00
2022-07-26T23:03:15.216Z,99066.06
2022-07-26T23:05:52.454Z,99050.25
2022-07-26T23:08:47.039Z,99072.75
2022-07-26T23:11:11.225Z,99060.31
2022-07-26T23:13:40.188Z,99060.03
2022-07-26T23:16:09.519Z,99039.25
2022-07-26T23:18:38.723Z,99061.34
2022-07-26T23:21:07.470Z,99057.38
2022-07-26T23:23:36.166Z,99070.09
2022-07-26T23:26:04.701Z,99059.88
2022-07-26T23:28:37.133Z,99081.09
2022-07-26T23:31:12.093Z,99065.00
2022-07-26T23:33:50.810Z,99080.06
2022-07-26T23:36:27.082Z,99091.97
2022-07-26T23:38:57.809Z,99061.25
2022-07-26T23:41:27.826Z,99100.66
2022-07-26T23:43:57.285Z,99104.19
2022-07-26T23:46:26.537Z,99083.00
2022-07-26T23:48:55.918Z,99077.50
2022-07-26T23:51:25.002Z,99079.03
2022-07-26T23:53:54.571Z,99083.66
2022-07-26T23:56:23.920Z,99076.59
2022-07-26T23:58:52.757Z,99072.50
